Terminal Aerodrome Forecast
Issued by NWS

Home | Current Version | Previous Version | Text Only | Print | Product List | Glossary On
Versions: 1 2 3 4 5 6 7 8 9 10 11 12 13 14 15
000
FTUS45 KFGZ 040520
TAFPRC
TAF
KPRC 040520Z 0406/0506 21006KT P6SM FEW200
     FM041900 23010G18KT P6SM FEW120
     FM050200 21006KT P6SM SKC=

USA.gov is the U.S. government's official web portal to all federal, state and local government web resources and services.